Reed Station, Pennsylvania
Current Conditions -  °F | °C
As of 2:10 PM on Tuesday 21 Oct 2014 (Local Time) from KSEG Reporting Station
Overcast Overcast  
Wind Chill: 59°   Ceiling: 3300
Heat Index: 59°   Visibility: 10mi
Dew Point: 48°   Wind: 0mph
Humidity: 67%   Direction: NA
Pressure: 29.84"   Gusts: NA
Location:  40.8354°N, 76.6402°W
Report Text: KSEG 211810Z AUTO 00000KT 10SM SCT028 OVC033 15/09 A2984 RMK AO2 T01500089
Loading
Personal Weather Stations






























Interactive Weather Map
Tropical Storm Tracking
New forecast layout! Learn more

10-Day Weather Forecast

Advertisements
Track Severe Weather on mobile